KBKD/BKD METAR and TAF weather

Enter ICAO airport designator
Station Type Date Time Source
KBKD METAR 2021/02/25 01:55 UTC NOAA

KBKD 250155Z AUTO 02004KT 10SM CLR 13/00 A3013 RMK AO2 T01320002


Station Type Date Time Source
KBKD Decoded METAR 2021/02/25 01:55 UTC NOAA

Station name not available
Feb 24, 2021 - 08:55 PM EST / 2021.02.25 0155 UTC
Wind: from the NNE (020 degrees) at 5 MPH (4 KT):0
Visibility: 10 mile(s):0
Sky conditions: clear
Temperature: 55.8 F (13.2 C)
Dew Point: 32.4 F (0.2 C)
Relative Humidity: 40%
Pressure (altimeter): 30.13 in. Hg (1020 hPa)
ob: KBKD 250155Z AUTO 02004KT 10SM CLR 13/00 A3013 RMK AO2 T01320002
cycle: 2

Station Type Date Time Source
KBKD TAF UTC NOAA

Error!

Example: see airport list